Terminal Aerodrome Forecast
Issued by NWS

Home | Current Version | Previous Version | Text Only | Print | Product List | Glossary On
Versions: 1 2 3 4 5 6 7 8 9 10 11 12 13 14 15 16 17 18 19 20 21 22 23 24 25
000
FTUS42 KMFL 251737
TAFMIA
TAF
KMIA 251737Z 2518/2624 12011KT P6SM VCSH BKN035 BKN100
      TEMPO 2518/2522 3SM SHRA BKN020
     FM260200 11007KT P6SM VCSH FEW015 SCT030 BKN120
     FM260800 11004KT P6SM SHRA OVC035
     FM261400 12013KT P6SM SHRA VCTS OVC020CB=

USA.gov is the U.S. government's official web portal to all federal, state and local government web resources and services.